Map

Track Data

SID SEASON NUMBER BASIN SUBBASIN NAME ISO_TIME NATURE LAT LON WMO_WIND WMO_PRES WMO_AGENCY TRACK_TYPE DIST2LAND LANDFALL IFLAG USA_AGENCY USA_ATCF_ID USA_LAT USA_LON USA_RECORD USA_STATUS USA_WIND USA_PRES USA_SSHS USA_R34_NE USA_R34_SE USA_R34_SW USA_R34_NW USA_R50_NE USA_R50_SE USA_R50_SW USA_R50_NW USA_R64_NE USA_R64_SE USA_R64_SW USA_R64_NW USA_POCI USA_ROCI USA_RMW USA_EYE TOKYO_LAT TOKYO_LON TOKYO_GRADE TOKYO_WIND TOKYO_PRES TOKYO_R50_DIR TOKYO_R50_LONG TOKYO_R50_SHORT TOKYO_R30_DIR TOKYO_R30_LONG TOKYO_R30_SHORT TOKYO_LAND CMA_LAT CMA_LON CMA_CAT CMA_WIND CMA_PRES HKO_LAT HKO_LON HKO_CAT HKO_WIND HKO_PRES NEWDELHI_LAT NEWDELHI_LON NEWDELHI_GRADE NEWDELHI_WIND NEWDELHI_PRES NEWDELHI_CI NEWDELHI_DP NEWDELHI_POCI REUNION_LAT REUNION_LON REUNION_TYPE REUNION_WIND REUNION_PRES REUNION_TNUM REUNION_CI REUNION_RMW REUNION_R34_NE REUNION_R34_SE REUNION_R34_SW REUNION_R34_NW REUNION_R50_NE REUNION_R50_SE REUNION_R50_SW REUNION_R50_NW REUNION_R64_NE REUNION_R64_SE REUNION_R64_SW REUNION_R64_NW BOM_LAT BOM_LON BOM_TYPE BOM_WIND BOM_PRES BOM_TNUM BOM_CI BOM_RMW BOM_R34_NE BOM_R34_SE BOM_R34_SW BOM_R34_NW BOM_R50_NE BOM_R50_SE BOM_R50_SW BOM_R50_NW BOM_R64_NE BOM_R64_SE BOM_R64_SW BOM_R64_NW BOM_ROCI BOM_POCI BOM_EYE BOM_POS_METHOD BOM_PRES_METHOD NADI_LAT NADI_LON NADI_CAT NADI_WIND NADI_PRES WELLINGTON_LAT WELLINGTON_LON WELLINGTON_WIND WELLINGTON_PRES DS824_LAT DS824_LON DS824_STAGE DS824_WIND DS824_PRES TD9636_LAT TD9636_LON TD9636_STAGE TD9636_WIND TD9636_PRES TD9635_LAT TD9635_LON TD9635_WIND TD9635_PRES TD9635_ROCI NEUMANN_LAT NEUMANN_LON NEUMANN_CLASS NEUMANN_WIND NEUMANN_PRES MLC_LAT MLC_LON MLC_CLASS MLC_WIND MLC_PRES USA_GUST BOM_GUST BOM_GUST_PER REUNION_GUST REUNION_GUST_PER USA_SEAHGT USA_SEARAD_NE USA_SEARAD_SE USA_SEARAD_SW USA_SEARAD_NW STORM_SPEED STORM_DIR
1960334S12087 1961 96 SI MM BARBARA 1960-11-29 00:00:00 TS -12.0000 87.0000 main 1748 1748 O_____________ jtwc_sh SH041961 -12.0000 87.0000 -1 13 283
1960334S12087 1961 96 SI MM BARBARA 1960-11-29 03:00:00 TS -11.8526 86.3529 main 1791 1791 P_____________ SH041961 -10.9361 85.9450 -1 17 299
1960334S12087 1961 96 SI MM BARBARA 1960-11-29 06:00:00 TS -11.1756 85.4962 main 1823 1823 O____O___OO_O_ jtwc_sh SH051961 -10.2000 85.1000 -1 -10.2000 85.1000 99 9.90000 -10.2000 85.1000 TC 25 -10.2000 85.1000 7 -10.2000 85.1000 TC 25 17 302
1960334S12087 1961 96 SI MM BARBARA 1960-11-29 09:00:00 TS -10.9448 84.8980 main 1858 1858 P____P___PP_P_ SH051961 -10.0070 84.5836 -1 -10.2052 84.6525 99 -10.1326 84.6549 TC 25 -10.1687 84.6699 7 -10.1301 84.6574 TC 25 12 291
1960334S12087 1961 96 SI MM BARBARA 1960-11-29 12:00:00 TS -10.7389 84.3358 main 1902 1882 O____O___OP_O_ jtwc_sh SH051961 -10.1000 84.2000 -1 -10.2000 84.2000 99 9.90000 -10.1000 84.2000 TC 25 -10.1498 84.2219 7 -10.1000 84.2000 TC 25 11 287
1960334S12087 1961 96 SI MM BARBARA 1960-11-29 15:00:00 TS -10.6165 83.8078 main 1882 1861 P____P___PP_P_ SH051961 -10.1274 83.7225 -1 -10.1848 83.7299 99 -10.1274 83.7225 TC 25 -10.1560 83.7380 7 -10.1349 83.7150 TC 25 11 281
1960334S12087 1961 96 SI MM BARBARA 1960-11-29 18:00:00 TS -10.5416 83.2620 main 1861 1852 O____O___OO_O_ jtwc_sh SH051961 -10.2000 83.2000 -1 -10.2000 83.2000 99 9.90000 -10.2000 83.2000 TC 25 -10.2000 83.2000 7 -10.2000 83.2000 TC 25 11 277
1960334S12087 1961 96 SI MM BARBARA 1960-11-29 21:00:00 TS -10.4870 82.6585 main 1852 1845 P____P___PP_P_ SH051961 -10.2850 82.6000 -1 -10.2777 82.5425 99 -10.2850 82.6000 TC 25 -10.2896 82.6030 7 -10.2274 82.6574 TC 27 12 273
1960334S12087 1961 96 SI MM BARBARA 1960-11-30 00:00:00 TS -10.4762 82.0384 main 1844 1840 O____O___OP_O_ jtwc_sh SH051961 -10.4000 82.0000 -1 -10.4000 81.9000 99 9.90000 -10.4000 82.0000 TC 25 -10.4133 81.9956 7 -10.3000 82.1000 TC 30 12 268
1960334S12087 1961 96 SI MM BARBARA 1960-11-30 03:00:00 TS -10.5381 81.4342 main 1839 1839 P____P___PP_P_ SH051961 -10.5500 81.4326 -1 -10.5499 81.3826 99 -10.5500 81.4326 TC 30 -10.5553 81.4404 7 -10.4852 81.4827 TC 32 10 258
1960334S12087 1961 96 SI MM BARBARA 1960-11-30 06:00:00 TS -10.7000 81.0000 main 1860 1860 O____O___OO_O_ jtwc_sh SH051961 -10.7000 81.0000 -1 -10.7000 81.0000 2 9.90000 -10.7000 81.0000 TC 35 -10.7000 81.0000 2 -10.7000 81.0000 TC 35 7 246
1960334S12087 1961 96 SI MM BARBARA 1960-11-30 09:00:00 TS -10.8178 80.7849 main 1871 1871 P____P___PP_P_ SH051961 -10.7999 80.7899 -1 -10.7999 80.7399 2 -10.7999 80.7899 TC 35 -10.8243 80.7647 2 -10.8648 80.8399 TC 35 4 233
1960334S12087 1961 96 SI MM BARBARA 1960-11-30 12:00:00 TS -10.9298 80.6889 main 1882 1882 O____O___OP_O_ jtwc_sh SH051961 -10.9000 80.7000 -1 -10.9000 80.6000 2 9.90000 -10.9000 80.7000 TC 35 -10.9492 80.6447 2 -11.0000 80.8000 TC 35 3 216
1960334S12087 1961 96 SI MM BARBARA 1960-11-30 15:00:00 TS -11.0649 80.5999 main 1904 1904 P____P___PP_P_ SH051961 -11.0500 80.6075 -1 -11.0500 80.5425 2 -11.0500 80.6075 TC 35 -11.0745 80.5773 2 -11.1000 80.6650 TC 37 3 215
1960334S12087 1961 96 SI MM BARBARA 1960-11-30 18:00:00 TS -11.2000 80.5000 main 1916 1916 O____O___OO_O_ jtwc_sh SH051961 -11.2000 80.5000 -1 -11.2000 80.5000 2 9.90000 -11.2000 80.5000 TC 35 -11.2000 80.5000 2 -11.2000 80.5000 TC 40 4 226
1960334S12087 1961 96 SI MM BARBARA 1960-11-30 21:00:00 TS -11.3134 80.3326 main 1927 1927 P____P___PP_P_ SH051961 -11.3000 80.3150 -1 -11.3000 80.3800 2 -11.3000 80.3150 TC 35 -11.3168 80.3458 2 -11.3500 80.3075 TC 42 4 238
1960334S12087 1961 96 SI MM BARBARA 1960-12-01 00:00:00 TS -11.4270 80.1334 main 1939 1939 O____O___OP_O_ jtwc_sh SH051961 -11.4000 80.1000 -1 -11.4000 80.2000 2 9.90000 -11.4000 80.1000 TC 35 -11.4348 80.1672 2 -11.5000 80.1000 TC 45 5 238
1960334S12087 1961 96 SI MM BARBARA 1960-12-01 03:00:00 TS -11.5560 79.9405 main 1962 1962 P____P___PP_P_ SH051961 -11.5424 79.9225 -1 -11.5425 79.9800 2 -11.5424 79.9225 TC 35 -11.5604 79.9551 2 -11.5924 79.9224 TC 42 5 237
1960334S12087 1961 96 SI MM BARBARA 1960-12-01 06:00:00 TS -11.7000 79.7000 reunion main 1974 1974 O____O___OO_O_ jtwc_sh SH051961 -11.7000 79.7000 -1 -11.7000 79.7000 2 9.90000 -11.7000 79.7000 TC 35 -11.7000 79.7000 2 -11.7000 79.7000 TC 40 6 242
1960334S12087 1961 96 SI MM BARBARA 1960-12-01 09:00:00 TS -11.8546 79.3695 main 1998 1998 P____P___PP_P_ SH051961 -11.8425 79.3725 -1 -11.8425 79.3650 2 -11.8425 79.3725 TC 35 -11.8528 79.3648 2 -11.8925 79.3726 TC 40 8 245
1960334S12087 1961 96 SI MM BARBARA 1960-12-01 12:00:00 TS -12.0241 78.9985 reunion main 2013 2013 O____O___OP_O_ jtwc_sh SH051961 -12.0000 79.0000 -1 -12.0000 79.0000 2 9.90000 -12.0000 79.0000 TC 35 -12.0204 78.9927 2 -12.1000 79.0000 TC 40 8 244
1960334S12087 1961 96 SI MM BARBARA 1960-12-01 15:00:00 TS -12.2061 78.6373 main 2040 2040 P____P___PP_P_ SH051961 -12.1925 78.6425 -1 -12.1925 78.6425 2 -12.1925 78.6425 TC 35 -12.2028 78.6242 2 -12.2500 78.6349 TC 37 8 241
1960334S12087 1961 96 SI MM BARBARA 1960-12-01 18:00:00 TS -12.4000 78.3000 reunion main 2066 2066 O____O___OO_O_ jtwc_sh SH051961 -12.4000 78.3000 -1 -12.4000 78.3000 2 9.90000 -12.4000 78.3000 TC 35 -12.4000 78.3000 2 -12.4000 78.3000 TC 35 8 239
1960334S12087 1961 96 SI MM BARBARA 1960-12-01 21:00:00 TS -12.5954 77.9702 main 2092 2092 P____P___PP_P_ SH051961 -12.5925 77.9550 -1 -12.5925 77.9550 2 -12.5925 77.9550 TC 35 -12.6144 77.9736 2 -12.5850 78.0125 TC 35 7 234
1960334S12087 1961 96 SI MM BARBARA 1960-12-02 00:00:00 TS -12.8084 77.7222 reunion main 2119 2119 O____O___OP_O_ jtwc_sh SH051961 -12.8000 77.7000 -1 -12.8000 77.7000 2 9.90000 -12.8000 77.7000 TC 35 -12.8419 77.7108 2 -12.8000 77.8000 TC 35 6 221
1960334S12087 1961 96 SI MM BARBARA 1960-12-02 03:00:00 TS -13.0531 77.5596 main 2154 2154 P____P___PP_P_ SH051961 -13.0498 77.5451 -1 -13.0498 77.5376 2 -13.0498 77.5451 TC 35 -13.0735 77.5675 2 -13.0424 77.6027 TC 35 5 193
1960334S12087 1961 96 SI MM BARBARA 1960-12-02 06:00:00 TS -13.3000 77.6000 reunion main 2176 2176 O____O___OO_O_ jtwc_sh SH051961 -13.3000 77.6000 -1 -13.3000 77.6000 2 9.90000 -13.3000 77.6000 TC 35 -13.3000 77.6000 2 -13.3000 77.6000 TC 35 6 143
1960334S12087 1961 96 SI MM BARBARA 1960-12-02 09:00:00 TS -13.5167 77.9244 main 2193 2192 P____P___PP_P_ SH051961 -13.5075 77.9175 -1 -13.5077 77.9749 2 -13.5075 77.9175 TC 35 -13.4958 77.9022 2 -13.5651 77.9098 TC 35 9 118
1960334S12087 1961 96 SI MM BARBARA 1960-12-02 12:00:00 TS -13.7173 78.4144 reunion main 2209 2208 O____O___OP_O_ jtwc_sh SH051961 -13.7000 78.4000 -1 -13.7000 78.5000 2 9.90000 -13.7000 78.4000 TC 35 -13.6863 78.3718 2 -13.8000 78.4000 TC 35 10 112
1960334S12087 1961 96 SI MM BARBARA 1960-12-02 15:00:00 TS -13.9023 78.9246 main 2226 2225 P____P___PP_P_ SH051961 -13.8926 78.9150 -1 -13.8925 78.9725 2 -13.8926 78.9150 TC 35 -13.8835 78.9055 2 -13.9501 78.9151 TC 35 10 112
1960334S12087 1961 96 SI MM BARBARA 1960-12-02 18:00:00 TS -14.1000 79.4000 reunion main 2244 2243 O____O___OO_O_ jtwc_sh SH051961 -14.1000 79.4000 -1 -14.1000 79.4000 2 9.90000 -14.1000 79.4000 TC 35 -14.1000 79.4000 2 -14.1000 79.4000 TC 35 9 118
1960334S12087 1961 96 SI MM BARBARA 1960-12-02 21:00:00 TS -14.3356 79.7495 main 2265 2264 P____P___PP_P_ SH051961 -14.3349 79.7451 -1 -14.3349 79.7376 2 -14.3349 79.7451 TC 35 -14.3458 79.7749 2 -14.3274 79.7450 TC 35 8 130
1960334S12087 1961 96 SI MM BARBARA 1960-12-03 00:00:00 TS -14.6033 80.0085 reunion main 2297 2297 O____O___OP_O_ jtwc_sh SH051961 -14.6000 80.0000 -1 -14.6000 80.0000 2 9.90000 -14.6000 80.0000 TC 35 -14.6165 80.0426 2 -14.6000 80.0000 TC 35 7 141
1960334S12087 1961 96 SI MM BARBARA 1960-12-03 03:00:00 TS -14.8954 80.2162 main 2330 2330 P____P___PP_P_ SH051961 -14.8926 80.2099 -1 -14.8925 80.2124 2 -14.8926 80.2099 TC 35 -14.9040 80.2391 2 -14.8951 80.2099 TC 35 7 148
1960334S12087 1961 96 SI MM BARBARA 1960-12-03 06:00:00 TS -15.2000 80.4000 main 2363 O____O___OO_O_ jtwc_sh SH051961 -15.2000 80.4000 -1 -15.2000 80.4000 2 9.90000 -15.2000 80.4000 TC 35 -15.2000 80.4000 2 -15.2000 80.4000 TC 35 7 150

About IBTrACS Database

This database is a web-friendly format of International Best Track Archive for Climate Stewardship (IBTrACS), a global best track data archive curated by NOAA dating back to 1842.

Updated: 2021-12-08